Time;durP1;ratioP1;P1;durP2;ratioP2;P2;SDS_P1;SDS_P2;PMS_P1;PMS_P2;Temp;Humidity;BMP_temperature;BMP_pressure;BME280_temperature;BME280_humidity;BME280_pressure;Samples;Min_cycle;Max_cycle;Signal;HPM_P1;HPM_P2
2022/04/29 00:01:03;;;;;;;7.03;5.10;;;;;;;8.56;100.00;98571.88;5017592;28;20140;-74
2022/04/29 00:03:31;;;;;;;8.23;5.55;;;;;;;8.48;100.00;98568.56;5016315;28;20053;-74
2022/04/29 00:05:59;;;;;;;8.63;6.05;;;;;;;8.47;100.00;98567.72;4988496;28;20050;-74
2022/04/29 00:08:26;;;;;;;7.38;5.25;;;;;;;8.08;100.00;98571.84;5001170;28;20491;-73
2022/04/29 00:10:54;;;;;;;8.70;5.55;;;;;;;8.09;100.00;98568.34;5001456;28;20053;-74
2022/04/29 00:13:21;;;;;;;9.95;6.10;;;9.80;99.90;;;7.97;100.00;98572.84;5000513;28;20594;-72
2022/04/29 00:15:48;;;;;;;10.07;5.78;;;9.00;99.90;;;8.01;100.00;98572.81;4981255;28;20164;-74
2022/04/29 00:18:15;;;;;;;10.18;5.70;;;8.90;99.90;;;8.03;100.00;98571.91;4999073;28;20081;-73
2022/04/29 00:20:42;;;;;;;7.05;3.38;;;8.80;99.90;;;8.39;100.00;98561.78;4985078;28;20121;-74
2022/04/29 00:23:10;;;;;;;8.82;4.32;;;8.90;99.90;;;8.27;100.00;98562.88;5001611;28;20141;-73
2022/04/29 00:25:38;;;;;;;8.02;4.28;;;9.00;99.90;;;8.16;100.00;98563.06;5004983;28;20132;-74
2022/04/29 00:28:06;;;;;;;8.25;4.22;;;8.90;99.90;;;8.04;100.00;98565.84;4973857;28;20042;-74
2022/04/29 00:30:33;;;;;;;5.55;3.70;;;8.80;99.90;;;8.09;100.00;98568.34;4999464;28;20133;-74
2022/04/29 00:33:01;;;;;;;6.90;4.13;;;8.90;99.90;;;7.96;100.00;98560.81;5004165;28;20116;-73
2022/04/29 00:35:28;;;;;;;7.18;3.40;;;8.80;99.90;;;8.10;100.00;98554.56;4999001;28;20064;-72
2022/04/29 00:37:58;;;;;;;7.95;3.50;;;8.80;99.90;;;8.05;100.00;98556.34;4983742;28;20081;-74
2022/04/29 00:40:29;;;;;;;4.88;2.78;;;8.80;99.90;;;8.04;100.00;98552.91;4985106;28;20089;-73
2022/04/29 00:42:57;;;;;;;3.42;2.58;;;8.80;99.90;;;8.03;100.00;98548.63;5000485;28;20063;-74
2022/04/29 00:45:25;;;;;;;3.97;2.95;;;8.80;99.90;;;8.01;100.00;98552.97;5001063;28;20551;-74
2022/04/29 00:47:53;;;;;;;4.47;3.58;;;8.70;99.90;;;7.96;100.00;98550.47;5016746;28;20145;-73
2022/04/29 00:50:24;;;;;;;6.90;3.33;;;8.70;99.90;;;7.89;100.00;98560.91;5003399;28;20081;-74
2022/04/29 00:52:54;;;;;;;4.97;3.05;;;8.60;99.90;;;7.88;100.00;98560.06;4983111;28;20093;-73
2022/04/29 00:55:22;;;;;;;7.60;3.22;;;8.70;99.90;;;7.77;100.00;98561.13;4988868;28;20129;-74
2022/04/29 00:58:07;;;;;;;7.70;3.08;;;8.60;99.90;;;7.72;100.00;98561.19;4982302;28;20474;-74
2022/04/29 01:00:36;;;;;;;7.20;3.50;;;8.60;99.90;;;7.49;100.00;98561.53;5002335;28;20129;-74
2022/04/29 01:03:04;;;;;;;7.50;3.45;;;8.40;99.90;;;7.41;100.00;98561.66;4969476;28;20054;-74
2022/04/29 01:05:33;;;;;;;4.70;2.95;;;8.30;99.90;;;7.41;100.00;98565.94;5013880;28;20050;-72
2022/04/29 01:08:01;;;;;;;5.10;3.40;;;8.30;99.90;;;7.29;100.00;98569.56;4997480;28;20204;-73
2022/04/29 01:10:28;;;;;;;4.95;3.42;;;8.10;99.90;;;7.42;100.00;98565.94;4984069;28;20052;-73
2022/04/29 01:12:59;;;;;;;7.43;3.40;;;8.20;99.90;;;7.47;100.00;98558.97;5002001;28;20046;-73
2022/04/29 01:15:28;;;;;;;6.93;3.10;;;8.20;99.90;;;7.56;100.00;98549.38;5000775;28;20137;-74
2022/04/29 01:18:04;;;;;;;4.88;3.20;;;8.30;99.90;;;7.56;100.00;98546.81;4986634;28;20138;-74
2022/04/29 01:20:32;;;;;;;6.22;3.22;;;8.30;99.90;;;7.50;100.00;98548.63;4986343;28;20085;-74
2022/04/29 01:23:11;;;;;;;5.50;3.25;;;8.30;99.90;;;7.50;100.00;98548.63;4982453;28;20077;-74
2022/04/29 01:25:40;;;;;;;6.53;3.70;;;8.30;99.90;;;7.45;100.00;98547.78;4999454;28;20497;-73
2022/04/29 01:28:07;;;;;;;7.75;3.30;;;8.20;99.90;;;7.52;100.00;98546.81;4999378;28;20100;-73
2022/04/29 01:30:34;;;;;;;10.40;3.30;;;8.20;99.90;;;7.62;100.00;98538.94;5000012;28;20053;-72
2022/04/29 01:33:01;;;;;;;4.13;3.05;;;8.30;99.90;;;7.36;100.00;98541.91;5002529;28;20073;-73
2022/04/29 01:35:29;;;;;;;5.38;3.05;;;8.30;99.90;;;7.38;100.00;98538.44;4987916;28;20136;-73
2022/04/29 01:37:57;;;;;;;5.70;3.28;;;8.20;99.90;;;7.55;100.00;98535.63;4997954;28;20073;-74
2022/04/29 01:40:23;;;;;;;4.00;2.88;;;8.30;99.90;;;7.57;100.00;98527.81;4997670;28;20168;-74
2022/04/29 01:42:50;;;;;;;6.45;3.50;;;8.30;99.90;;;7.38;100.00;98530.69;4999384;28;20073;-73
2022/04/29 01:45:18;;;;;;;6.75;3.53;;;8.30;99.90;;;7.52;100.00;98527.91;5000531;28;20423;-74
2022/04/29 01:47:45;;;;;;;6.18;3.45;;;8.30;99.90;;;7.63;100.00;98526.00;4998890;28;20077;-73
2022/04/29 01:50:12;;;;;;;7.47;3.65;;;8.30;99.90;;;7.46;100.00;98530.59;5000374;28;20042;-74
2022/04/29 01:52:39;;;;;;;5.57;3.10;;;8.30;99.90;;;7.53;100.00;98529.63;4999180;28;20144;-72
2022/04/29 01:55:07;;;;;;;3.90;2.65;;;8.30;99.90;;;7.59;100.00;98519.16;4987507;28;20488;-74
2022/04/29 01:57:35;;;;;;;4.82;3.13;;;8.30;99.90;;;7.62;100.00;98528.59;4997551;28;20173;-74
2022/04/29 02:00:05;;;;;;;4.80;3.17;;;8.20;99.90;;;7.52;100.00;98521.00;5000337;28;20489;-73
2022/04/29 02:02:32;;;;;;;5.43;3.65;;;8.20;99.90;;;7.43;100.00;98523.72;5013937;28;20078;-74
2022/04/29 02:04:59;;;;;;;4.30;3.30;;;8.10;99.90;;;7.40;100.00;98525.50;5001434;28;20123;-73
2022/04/29 02:07:26;;;;;;;5.53;3.72;;;8.10;99.90;;;7.38;100.00;98517.78;5001585;28;20065;-73
2022/04/29 02:09:56;;;;;;;4.13;3.15;;;8.10;99.90;;;7.38;100.00;98522.09;4999591;28;20132;-73
2022/04/29 02:12:23;;;;;;;5.20;3.88;;;8.10;99.90;;;7.33;100.00;98517.00;4987940;28;20744;-73
2022/04/29 02:14:50;;;;;;;4.43;3.22;;;8.10;99.90;;;7.47;100.00;98515.06;4996667;28;20544;-74
2022/04/29 02:17:17;;;;;;;4.68;2.95;;;8.10;99.90;;;7.44;100.00;98506.50;4997204;28;20531;-73
2022/04/29 02:19:44;;;;;;;4.43;3.40;;;8.10;99.90;;;7.36;100.00;98509.19;5000333;28;20380;-73
2022/04/29 02:22:11;;;;;;;6.00;3.20;;;8.10;99.90;;;7.28;100.00;98511.06;4998781;28;20647;-74
2022/04/29 02:24:38;;;;;;;4.38;3.22;;;8.00;99.90;;;7.31;100.00;98511.84;5002322;28;20136;-72
2022/04/29 02:27:07;;;;;;;5.72;3.78;;;8.00;99.90;;;7.23;100.00;98505.94;5000813;28;20173;-74
2022/04/29 02:29:35;;;;;;;4.32;3.33;;;7.90;99.90;;;7.07;100.00;98507.00;4999855;28;20055;-73
2022/04/29 02:32:03;;;;;;;4.90;3.03;;;8.00;99.90;;;7.16;100.00;98506.91;4995056;28;20046;-74
2022/04/29 02:34:31;;;;;;;9.05;4.35;;;7.90;99.90;;;7.10;100.00;98509.56;4996436;28;20077;-74
2022/04/29 02:36:58;;;;;;;5.35;3.38;;;7.80;99.90;;;7.15;100.00;98505.19;4996591;28;20057;-74
2022/04/29 02:39:25;;;;;;;5.95;3.63;;;7.90;99.90;;;7.09;100.00;98502.69;5000367;28;20603;-74
2022/04/29 02:41:52;;;;;;;5.97;4.20;;;7.80;99.90;;;7.01;100.00;98504.53;4998082;28;20132;-73
2022/04/29 02:44:19;;;;;;;6.50;4.13;;;7.80;99.90;;;7.03;100.00;98498.47;4998031;28;20397;-73
2022/04/29 02:49:32;;;;;;;5.22;3.85;;;7.70;99.90;;;6.76;100.00;98502.28;4997888;28;20046;-74
2022/04/29 02:51:59;;;;;;;7.97;4.32;;;7.70;99.90;;;6.81;100.00;98509.94;4999592;28;20581;-73
2022/04/29 02:54:26;;;;;;;6.30;4.50;;;7.60;99.90;;;6.80;100.00;98508.25;4988678;28;20137;-74
2022/04/29 02:56:53;;;;;;;5.38;4.15;;;7.50;99.90;;;6.84;100.00;98508.19;4997497;28;20133;-73
2022/04/29 02:59:21;;;;;;;6.07;4.70;;;7.60;99.90;;;6.84;100.00;98517.63;4997281;28;20108;-74
2022/04/29 03:01:49;;;;;;;7.25;4.85;;;7.60;99.90;;;6.75;100.00;98523.78;4993028;28;20724;-72
2022/04/29 03:04:16;;;;;;;4.82;3.80;;;7.50;99.90;;;6.80;100.00;98518.59;4999988;28;20815;-74
2022/04/29 03:06:44;;;;;;;6.68;4.45;;;7.50;99.90;;;6.81;100.00;98520.28;4999342;28;20473;-74
2022/04/29 03:09:11;;;;;;;6.57;5.13;;;7.60;99.90;;;6.79;100.00;98528.03;4989421;28;20514;-74
2022/04/29 03:11:39;;;;;;;8.05;5.45;;;7.60;99.90;;;6.93;100.00;98509.78;5004842;28;20057;-74
2022/04/29 03:14:06;;;;;;;8.00;5.55;;;7.60;99.90;;;6.93;100.00;98514.09;5004223;28;20050;-74
2022/04/29 03:16:34;;;;;;;8.20;5.45;;;7.60;99.90;;;6.90;100.00;98510.69;4990734;28;20053;-73
2022/04/29 03:19:01;;;;;;;8.73;5.55;;;7.60;99.90;;;6.94;100.00;98515.81;4999315;28;20504;-72
2022/04/29 03:21:28;;;;;;;8.80;5.38;;;7.60;99.90;;;6.90;100.00;98515.84;5004696;28;20125;-73
2022/04/29 03:23:55;;;;;;;10.30;6.15;;;7.60;99.90;;;6.94;100.00;98508.06;5003413;28;20408;-74
2022/04/29 03:26:22;;;;;;;8.18;5.85;;;7.60;99.90;;;6.98;100.00;98508.03;4985152;28;20072;-71
2022/04/29 03:28:49;;;;;;;8.07;5.70;;;7.70;99.90;;;6.99;100.00;98498.53;4997526;28;20050;-73
2022/04/29 03:31:16;;;;;;;8.48;6.13;;;7.70;99.90;;;6.95;100.00;98497.72;5004338;28;20580;-74
2022/04/29 03:33:44;;;;;;;7.53;5.38;;;7.70;99.90;;;6.79;100.00;98501.38;5000753;28;20103;-72
2022/04/29 03:36:11;;;;;;;9.63;6.00;;;7.70;99.90;;;6.75;100.00;98495.41;5003531;28;20129;-73
2022/04/29 03:38:38;;;;;;;10.25;6.85;;;7.60;99.90;;;6.66;100.00;98495.50;5017737;28;20133;-72
2022/04/29 03:41:06;;;;;;;10.48;6.55;;;7.60;99.90;;;6.54;100.00;98495.66;5000951;28;20136;-73
2022/04/29 03:43:33;;;;;;;7.10;5.68;;;7.50;99.90;;;6.57;100.00;98496.50;4985229;28;20910;-73
2022/04/29 03:46:01;;;;;;;8.98;5.43;;;7.40;99.90;;;6.65;100.00;98493.81;5001501;28;20143;-73
2022/04/29 03:48:28;;;;;;;6.55;5.25;;;7.30;99.90;;;6.51;100.00;98491.38;5000022;28;20519;-72
2022/04/29 03:51:15;;;;;;;7.43;5.45;;;7.30;99.90;;;6.41;100.00;98485.50;5003947;28;20042;-73
2022/04/29 03:53:42;;;;;;;6.45;4.72;;;7.30;99.90;;;6.39;100.00;98492.38;5020101;28;20447;-74
2022/04/29 03:56:09;;;;;;;6.28;4.95;;;7.20;99.90;;;6.44;100.00;98493.19;5003476;28;20136;-74
2022/04/29 03:58:37;;;;;;;8.93;6.18;;;7.20;99.90;;;6.34;100.00;98489.00;5004149;28;20152;-74
2022/04/29 04:01:04;;;;;;;6.68;5.25;;;7.20;99.90;;;6.36;100.00;98494.13;4971503;28;20230;-73
2022/04/29 04:03:31;;;;;;;9.30;5.93;;;7.10;99.90;;;6.22;100.00;98502.03;4999106;28;20123;-75
2022/04/29 04:08:44;;;;;;;10.85;7.57;;;7.20;99.90;;;6.21;100.00;98506.31;5000653;28;20602;-73
2022/04/29 04:11:11;;;;;;;10.60;7.65;;;7.00;99.90;;;6.14;100.00;98509.84;5004423;28;20133;-73
2022/04/29 04:13:38;;;;;;;11.45;7.32;;;7.10;99.90;;;6.06;100.00;98516.78;4998280;28;20046;-74
2022/04/29 04:16:05;;;;;;;9.98;6.43;;;7.10;99.90;;;6.12;100.00;98519.31;5001463;28;20128;-75
2022/04/29 04:18:32;;;;;;;13.57;7.75;;;7.10;99.90;;;6.09;100.00;98519.34;5006381;28;20181;-74
2022/04/29 04:20:59;;;;;;;10.75;7.40;;;5.90;99.90;;;6.14;100.00;98527.03;5001565;28;20125;-74
2022/04/29 04:23:26;;;;;;;11.93;8.88;;;7.00;99.90;;;6.15;100.00;98532.16;5000439;28;20140;-74
2022/04/29 04:25:56;;;;;;;11.65;8.38;;;7.00;99.90;;;6.38;100.00;98528.50;5002511;28;20046;-74
2022/04/29 04:28:23;;;;;;;11.38;7.25;;;7.20;99.90;;;6.36;100.00;98531.09;4990717;28;20065;-74
2022/04/29 04:30:51;;;;;;;11.50;7.57;;;7.10;99.90;;;6.18;100.00;98533.84;4986894;28;20088;-73
2022/04/29 04:33:18;;;;;;;9.10;7.25;;;7.10;99.90;;;5.97;100.00;98535.75;4999253;28;20042;-74
2022/04/29 04:35:45;;;;;;;9.07;7.25;;;7.20;99.90;;;6.10;100.00;98540.81;4999210;28;20060;-74
2022/04/29 04:38:14;;;;;;;9.55;8.35;;;7.00;99.90;;;6.02;100.00;98536.59;5002945;28;20157;-74
2022/04/29 04:40:42;;;;;;;14.40;8.55;;;7.00;99.90;;;6.08;100.00;98539.09;5004606;28;20049;-74
2022/04/29 04:43:15;;;;;;;10.88;7.97;;;7.10;99.90;;;6.10;100.00;98539.09;5014260;28;20054;-74
2022/04/29 04:45:43;;;;;;;11.52;8.20;;;7.10;99.90;;;6.18;100.00;98547.63;5002088;28;20478;-74
2022/04/29 04:48:11;;;;;;;11.25;8.40;;;7.20;99.90;;;6.30;100.00;98548.38;4985491;28;20042;-72
2022/04/29 04:50:38;;;;;;;9.52;6.90;;;7.20;99.90;;;6.26;100.00;98550.94;5018595;28;20081;-73
2022/04/29 04:53:05;;;;;;;11.15;7.97;;;7.30;99.90;;;6.34;100.00;98552.59;5004392;28;20045;-73
2022/04/29 04:55:32;;;;;;;8.95;6.88;;;7.40;99.90;;;6.53;100.00;98543.81;5003535;28;20133;-73
2022/04/29 04:57:59;;;;;;;8.50;7.32;;;7.40;99.90;;;6.64;100.00;98546.28;5002711;28;20129;-74
2022/04/29 05:00:26;;;;;;;11.30;6.80;;;7.50;99.90;;;6.67;100.00;98551.41;5000569;28;20081;-73
2022/04/29 05:02:53;;;;;;;10.38;7.97;;;7.80;99.90;;;6.64;100.00;98552.28;4997613;28;20090;-72
2022/04/29 05:05:20;;;;;;;11.55;8.45;;;7.70;99.90;;;6.63;100.00;98545.41;5002100;28;20053;-73
2022/04/29 05:07:47;;;;;;;15.00;8.88;;;7.60;99.90;;;6.70;100.00;98552.22;5002872;28;20077;-73
2022/04/29 05:10:14;;;;;;;9.85;7.10;;;7.60;99.90;;;6.78;100.00;98546.97;4952261;28;20099;-73
2022/04/29 05:12:46;;;;;;;10.48;7.60;;;7.60;99.90;;;6.90;100.00;98545.97;4994547;28;20085;-74
2022/04/29 05:15:14;;;;;;;10.05;7.68;;;7.80;99.90;;;6.84;100.00;98546.03;5002102;28;20058;-74
2022/04/29 05:17:42;;;;;;;12.10;7.40;;;7.80;99.90;;;6.99;100.00;98548.44;4999507;28;20473;-73
2022/04/29 05:20:15;;;;;;;7.97;6.60;;;7.90;99.90;;;7.05;100.00;98556.09;5005726;28;20544;-74
2022/04/29 05:22:45;;;;;;;8.57;5.63;;;6.70;99.90;;;7.18;100.00;98546.44;4983182;28;20056;-74
2022/04/29 05:25:12;;;;;;;8.32;6.25;;;8.00;99.90;;;7.10;100.00;98553.47;4999874;28;20071;-74
2022/04/29 05:27:39;;;;;;;7.70;5.80;;;8.00;99.90;;;7.23;100.00;98557.59;4997720;28;20089;-73
2022/04/29 05:30:08;;;;;;;8.15;5.78;;;8.00;99.90;;;7.20;100.00;98549.88;4999620;28;20421;-74
2022/04/29 05:32:37;;;;;;;7.25;6.13;;;7.90;99.90;;;7.24;100.00;98548.13;4997946;28;20057;-74
2022/04/29 05:35:05;;;;;;;6.50;4.75;;;8.30;99.90;;;7.48;100.00;98546.91;4996626;28;20058;-74
2022/04/29 05:37:32;;;;;;;8.07;5.25;;;8.30;99.90;;;7.28;100.00;98550.63;5023529;28;20062;-73
2022/04/29 05:42:47;;;;;;;8.07;5.45;;;8.60;99.90;;;7.82;100.00;98536.91;4998131;28;20050;-74
2022/04/29 05:45:14;;;;;;;10.18;7.10;;;9.00;99.90;;;8.08;100.00;98539.06;4998743;28;20125;-73
2022/04/29 05:47:41;;;;;;;8.77;6.70;;;9.00;99.90;;;8.43;100.00;98536.75;4994628;28;20089;-74
2022/04/29 05:50:08;;;;;;;11.43;7.18;;;9.20;99.90;;;8.78;100.00;98536.06;4996955;28;20082;-73
2022/04/29 05:52:35;;;;;;;10.48;7.53;;;9.50;99.90;;;8.79;100.00;98537.78;4992696;28;20062;-73
2022/04/29 05:55:02;;;;;;;10.68;6.57;;;9.80;99.90;;;9.07;100.00;98543.25;4996793;28;20080;-73
2022/04/29 05:57:29;;;;;;;14.45;7.88;;;10.00;99.90;;;9.24;100.00;98532.53;5000778;28;20082;-74
2022/04/29 05:59:58;;;;;;;13.50;7.03;;;10.30;99.90;;;9.43;100.00;98527.78;4996225;28;20524;-74
2022/04/29 06:02:27;;;;;;;12.55;7.20;;;10.40;99.90;;;9.62;100.00;98525.63;5013864;28;20049;-73
2022/04/29 06:04:54;;;;;;;7.85;6.10;;;10.70;99.90;;;9.78;100.00;98524.38;4973454;28;20054;-74
2022/04/29 06:07:21;;;;;;;11.93;7.15;;;10.80;99.90;;;10.00;100.00;98527.28;4997449;28;20054;-74
2022/04/29 06:09:48;;;;;;;16.02;7.30;;;11.00;99.90;;;10.16;100.00;98517.38;5000036;28;20155;-73
2022/04/29 06:12:15;;;;;;;10.40;7.65;;;11.20;99.90;;;10.43;100.00;98507.19;4999738;28;20100;-74
2022/04/29 06:14:45;;;;;;;10.40;7.13;;;11.50;99.90;;;10.86;100.00;98511.19;4997002;28;20558;-74
2022/04/29 06:17:13;;;;;;;12.65;6.70;;;;;;;11.13;100.00;98500.84;5013521;28;20057;-74
2022/04/29 06:19:40;;;;;;;8.32;6.60;;;12.00;99.90;;;11.60;100.00;98499.38;4995700;28;20137;-75
2022/04/29 06:22:08;;;;;;;13.68;7.50;;;12.40;99.90;;;11.61;100.00;98495.03;5017568;28;20580;-75
2022/04/29 06:24:35;;;;;;;13.35;8.10;;;12.60;99.90;;;11.61;100.00;98498.50;4995471;28;20113;-72
2022/04/29 06:27:22;;;;;;;12.55;7.95;;;12.70;99.90;;;11.61;100.00;98500.22;4999417;28;20058;-74
2022/04/29 06:29:49;;;;;;;9.95;7.28;;;12.80;99.90;;;11.65;100.00;98491.44;5000519;28;20061;-74
2022/04/29 06:32:16;;;;;;;13.00;7.63;;;12.80;99.90;;;11.61;100.00;98492.44;4982828;28;20092;-74
2022/04/29 06:34:45;;;;;;;11.65;7.60;;;12.90;99.90;;;11.78;100.00;98491.91;4999967;28;20093;-74
2022/04/29 06:37:12;;;;;;;11.60;7.18;;;12.90;99.90;;;11.77;100.00;98493.66;4998087;28;20056;-74
2022/04/29 06:39:39;;;;;;;11.15;6.70;;;13.00;99.90;;;12.01;100.00;98484.22;5000178;28;20512;-73
2022/04/29 06:42:08;;;;;;;10.23;6.35;;;13.10;99.90;;;11.98;100.00;98489.53;5000250;28;20050;-73
2022/04/29 06:44:37;;;;;;;10.65;6.57;;;13.20;99.90;;;12.29;100.00;98489.34;4972470;28;20109;-73
2022/04/29 06:47:05;;;;;;;9.10;6.07;;;13.30;99.90;;;12.25;100.00;98486.88;4983141;28;20145;-74
2022/04/29 06:49:32;;;;;;;9.18;5.93;;;13.40;99.90;;;12.52;100.00;98490.25;5003922;28;20097;-73
2022/04/29 06:51:59;;;;;;;11.35;5.90;;;13.40;99.90;;;12.42;100.00;98491.50;5007009;28;20132;-74
2022/04/29 06:54:29;;;;;;;14.55;6.82;;;13.50;99.90;;;12.37;100.00;98494.25;5000171;28;20129;-74
2022/04/29 06:56:55;;;;;;;12.35;5.60;;;13.50;99.90;;;12.42;100.00;98500.16;4993560;28;20054;-71
2022/04/29 06:59:23;;;;;;;10.82;6.00;;;13.50;99.90;;;12.49;100.00;98506.84;5003018;28;20136;-74
2022/04/29 07:01:50;;;;;;;7.78;5.63;;;13.60;99.90;;;12.33;100.00;98501.31;4990492;28;20101;-74
2022/04/29 07:04:17;;;;;;;11.35;5.95;;;13.60;99.90;;;12.66;100.00;98502.81;5003186;28;20073;-75
2022/04/29 07:06:44;;;;;;;14.52;5.68;;;13.70;99.90;;;12.73;100.00;98501.66;5004810;28;20137;-72
2022/04/29 07:09:11;;;;;;;11.32;6.00;;;13.80;99.90;;;12.67;100.00;98504.47;4997230;28;20455;-74
2022/04/29 07:11:38;;;;;;;9.45;5.57;;;13.80;99.90;;;13.00;100.00;98497.19;4999521;28;20047;-73
2022/04/29 07:14:08;;;;;;;10.02;5.20;;;13.80;99.90;;;12.74;100.00;98496.38;5000396;28;20054;-74
2022/04/29 07:16:35;;;;;;;9.43;5.65;;;13.90;99.90;;;12.95;100.00;98491.28;5017420;28;20176;-73
2022/04/29 07:19:05;;;;;;;9.05;4.80;;;14.00;99.90;;;13.33;100.00;98489.00;5003914;28;20512;-74
2022/04/29 07:21:32;;;;;;;9.07;4.90;;;14.20;99.90;;;13.33;100.00;98489.00;5002494;28;20507;-73
2022/04/29 07:24:00;;;;;;;9.13;4.82;;;14.20;99.90;;;13.57;100.00;98482.81;5004957;28;20065;-74
2022/04/29 07:26:28;;;;;;;7.75;4.15;;;14.40;99.90;;;13.86;100.00;98480.75;4996554;28;20054;-74
2022/04/29 07:28:56;;;;;;;8.40;4.65;;;14.60;99.90;;;13.67;100.00;98479.84;5000792;28;20551;-74
2022/04/29 07:31:23;;;;;;;8.77;4.72;;;14.70;99.90;;;13.85;100.00;98481.69;5020659;28;20141;-74
2022/04/29 07:33:50;;;;;;;9.93;5.78;;;14.90;99.90;;;13.48;100.00;98482.31;5005756;28;20064;-74
2022/04/29 07:41:48;;;;;;;7.75;4.70;;;15.10;99.90;;;13.93;100.00;98479.59;4998520;28;20100;-74
2022/04/29 07:44:16;;;;;;;7.53;5.20;;;15.20;99.90;;;14.16;100.00;98475.16;4998178;28;20053;-74
2022/04/29 07:46:45;;;;;;;7.80;4.88;;;15.30;99.90;;;13.97;100.00;98483.78;5003272;28;20081;-74
2022/04/29 07:49:14;;;;;;;11.00;5.15;;;15.40;99.90;;;14.30;100.00;98477.19;5016848;28;20060;-74
2022/04/29 07:51:42;;;;;;;9.30;5.28;;;15.30;99.90;;;14.30;100.00;98483.28;4974475;28;20132;-74
2022/04/29 07:54:09;;;;;;;10.55;4.88;;;15.40;99.90;;;14.36;100.00;98484.75;5021163;28;20385;-74
2022/04/29 07:56:37;;;;;;;11.75;4.95;;;15.40;99.90;;;14.48;100.00;98489.44;5016720;28;20133;-74
2022/04/29 07:59:04;;;;;;;11.40;5.70;;;15.50;99.90;;;14.29;100.00;98486.78;4997069;28;20047;-74
2022/04/29 08:01:33;;;;;;;9.23;5.18;;;15.50;99.90;;;14.45;100.00;98484.34;5006795;28;20055;-73
2022/04/29 08:04:02;;;;;;;7.90;5.70;;;15.60;99.90;;;14.45;100.00;98486.97;4990596;28;20053;-74
2022/04/29 08:06:32;;;;;;;11.93;6.10;;;15.60;99.90;;;14.20;100.00;98481.97;5002173;28;20053;-74
2022/04/29 08:09:19;;;;;;;10.60;5.43;;;15.70;99.90;;;14.61;100.00;98485.41;5003333;28;20073;-74
2022/04/29 08:11:46;;;;;;;10.68;5.60;;;15.70;99.90;;;14.51;100.00;98491.09;5000498;28;20137;-74
2022/04/29 08:14:13;;;;;;;12.55;5.68;;;15.80;99.90;;;14.73;100.00;98489.22;5004654;28;20145;-74
2022/04/29 08:16:59;;;;;;;12.23;5.85;;;15.90;99.90;;;14.82;100.00;98482.75;5001129;28;20061;-74
2022/04/29 08:19:27;;;;;;;11.93;6.03;;;16.20;99.90;;;14.69;100.00;98486.81;5001727;28;20062;-73
2022/04/29 08:21:54;;;;;;;12.63;6.05;;;16.20;99.90;;;14.86;100.00;98486.94;5001262;28;20056;-73
2022/04/29 08:24:21;;;;;;;13.77;5.20;;;16.30;99.90;;;15.13;100.00;98483.97;5003047;28;20100;-74
2022/04/29 08:26:48;;;;;;;13.40;5.90;;;16.40;99.90;;;15.09;100.00;98483.25;4999870;28;20141;-74
2022/04/29 08:29:15;;;;;;;9.20;5.45;;;16.50;99.90;;;15.72;100.00;98482.91;5015365;28;20085;-74
2022/04/29 08:31:42;;;;;;;13.63;5.10;;;16.80;99.90;;;15.66;100.00;98477.94;4999802;28;20054;-74
2022/04/29 08:34:09;;;;;;;8.15;5.30;;;16.90;99.90;;;15.67;100.00;98474.41;4997942;28;20054;-73
2022/04/29 08:36:36;;;;;;;12.63;5.70;;;17.10;99.90;;;15.87;100.00;98478.66;5001034;28;20606;-74
2022/04/29 08:39:03;;;;;;;10.93;5.60;;;17.30;99.90;;;15.89;100.00;98475.06;5002352;28;20100;-73
2022/04/29 08:41:32;;;;;;;11.25;5.70;;;17.50;99.90;;;15.68;100.00;98474.31;4998495;28;20054;-74
2022/04/29 08:44:00;;;;;;;9.98;5.22;;;17.60;99.90;;;16.28;100.00;98480.97;4985100;28;20145;-74
2022/04/29 08:46:30;;;;;;;8.02;4.90;;;17.70;99.90;;;16.69;100.00;98480.59;4997570;28;20050;-74
2022/04/29 08:49:01;;;;;;;11.75;5.32;;;17.80;99.90;;;15.87;100.00;98469.06;5014537;28;20125;-74
2022/04/29 08:51:29;;;;;;;8.32;4.75;;;17.80;99.90;;;16.43;100.00;98481.97;5017188;28;20082;-74
2022/04/29 08:53:57;;;;;;;12.18;5.00;;;17.80;99.90;;;16.66;100.00;98480.75;4998606;28;20050;-74
2022/04/29 08:59:10;;;;;;;11.55;5.70;;;18.00;99.90;;;16.18;100.00;98466.66;5001042;28;20094;-74
2022/04/29 09:01:40;;;;;;;9.50;5.03;;;17.80;99.90;;;16.31;100.00;98472.97;5015067;28;20129;-74
2022/04/29 09:04:07;;;;;;;9.20;4.88;;;18.00;99.90;;;16.38;100.00;98466.50;4985551;28;20050;-74
2022/04/29 09:06:48;;;;;;;10.57;4.85;;;18.00;99.90;;;17.05;100.00;98462.06;5001867;28;20433;-74
2022/04/29 09:09:21;;;;;;;10.00;4.57;;;18.20;99.90;;;17.29;100.00;98449.38;4998045;28;20683;-74
2022/04/29 09:11:48;;;;;;;10.00;4.85;;;18.30;99.90;;;17.31;100.00;98452.75;4987290;28;20050;-73
2022/04/29 09:14:25;;;;;;;9.13;4.45;;;18.50;99.90;;;16.92;100.00;98461.03;5002185;28;20078;-74
2022/04/29 09:16:54;;;;;;;7.38;4.40;;;18.60;99.90;;;17.39;100.00;98454.09;5001785;28;20122;-72
2022/04/29 09:19:36;;;;;;;11.18;4.80;;;18.60;99.90;;;17.24;100.00;98459.28;5004211;28;20057;-74
2022/04/29 09:22:07;;;;;;;10.55;4.90;;;18.70;99.90;;;17.33;100.00;98457.91;5012278;28;20050;-74
2022/04/29 09:24:35;;;;;;;10.68;5.05;;;18.80;99.90;;;17.49;100.00;98450.88;5000269;28;20563;-74
2022/04/29 09:27:05;;;;;;;9.52;5.18;;;18.90;99.90;;;17.57;100.00;98453.06;4982159;28;20057;-74
2022/04/29 09:29:42;;;;;;;9.50;4.38;;;19.10;99.90;;;18.04;100.00;98451.25;5002486;28;20176;-74
2022/04/29 09:32:11;;;;;;;6.68;3.78;;;19.10;99.90;;;18.47;100.00;98446.06;4989820;28;20050;-74
2022/04/29 09:34:58;;;;;;;8.52;4.38;;;19.30;99.90;;;18.19;100.00;98453.81;5000792;28;20058;-74
2022/04/29 09:37:27;;;;;;;10.80;4.78;;;19.70;99.90;;;18.44;100.00;98443.63;4999681;28;20054;-74
2022/04/29 09:40:02;;;;;;;8.73;4.05;;;19.80;99.90;;;19.58;100.00;98432.06;4991539;28;20575;-74
2022/04/29 09:42:42;;;;;;;6.50;3.70;;;20.20;99.90;;;19.52;100.00;98441.19;4995948;28;20046;-74
2022/04/29 09:45:23;;;;;;;11.32;5.80;;;20.60;99.90;;;20.10;100.00;98436.50;4998991;28;20054;-74
2022/04/29 09:47:55;;;;;;;7.57;3.78;;;20.90;97.50;;;20.13;100.00;98430.19;4989981;28;20116;-73
2022/04/29 09:50:49;;;;;;;11.10;4.07;;;21.00;96.10;;;20.19;100.00;98422.69;4983155;28;20200;-73
2022/04/29 09:53:24;;;;;;;7.93;3.78;;;21.00;95.70;;;19.81;100.00;98420.84;4986120;28;20495;-73
2022/04/29 09:56:09;;;;;;;16.70;4.25;;;21.10;94.00;;;20.02;100.00;98413.28;4983640;28;20591;-73
2022/04/29 09:58:37;;;;;;;6.85;3.55;;;21.20;94.10;;;19.51;100.00;98413.19;4983398;28;20136;-72
2022/04/29 10:01:04;;;;;;;4.72;3.50;;;21.00;93.60;;;19.30;100.00;98411.97;5003947;28;20053;-74
2022/04/29 10:03:33;;;;;;;6.93;4.93;;;20.90;93.60;;;18.67;100.00;98413.28;5000085;28;20548;-73
2022/04/29 10:06:03;;;;;;;11.15;5.00;;;20.60;93.20;;;18.76;100.00;98410.06;4998369;28;20050;-74
2022/04/29 10:08:32;;;;;;;5.72;3.10;;;20.40;93.70;;;18.35;100.00;98406.44;4999831;28;20050;-74
2022/04/29 10:11:00;;;;;;;7.75;3.42;;;20.00;93.10;;;18.62;100.00;98408.31;5013893;28;20050;-73
2022/04/29 10:13:29;;;;;;;8.75;4.05;;;19.90;93.40;;;18.64;100.00;98408.22;5001833;28;20152;-73
2022/04/29 10:15:57;;;;;;;6.32;3.20;;;19.90;93.20;;;18.84;100.00;98404.34;5003288;28;20129;-73
2022/04/29 10:21:16;;;;;;;5.22;2.85;;;20.10;93.10;;;19.37;100.00;98400.09;4988520;28;20046;-73
2022/04/29 10:23:50;;;;;;;8.55;2.88;;;20.50;92.20;;;19.53;99.28;98402.56;4988822;28;20038;-72
2022/04/29 10:26:19;;;;;;;8.48;3.40;;;20.70;91.60;;;20.34;98.06;98393.59;5000914;28;20076;-73
2022/04/29 10:28:47;;;;;;;6.07;2.10;;;21.00;92.70;;;20.93;98.80;98390.34;4986199;28;20154;-72
2022/04/29 10:31:22;;;;;;;4.28;2.78;;;21.40;93.30;;;20.35;96.22;98388.22;5003136;28;20455;-73
2022/04/29 10:33:50;;;;;;;7.57;2.55;;;21.50;92.00;;;20.34;97.46;98397.06;4999842;28;20081;-73
2022/04/29 10:36:23;;;;;;;7.20;2.88;;;21.30;92.60;;;21.93;93.30;98389.94;4993226;28;20122;-72
2022/04/29 10:39:01;;;;;;;4.25;2.03;;;21.80;79.30;;;22.96;90.95;98381.09;5008905;28;20269;-72
2022/04/29 10:41:27;;;;;;;3.38;2.03;;;22.60;78.80;;;22.44;91.12;98386.09;5004114;28;20054;-73
2022/04/29 10:43:54;;;;;;;2.88;1.98;;;22.80;77.20;;;22.55;90.67;98375.47;5003323;28;20150;-72
2022/04/29 10:46:31;;;;;;;4.85;2.65;;;23.00;76.20;;;22.22;88.84;98375.50;5003681;28;20137;-73